createdAt,value
2022-12-12T00:00:30.455Z,-3.00
2022-12-12T00:07:44.965Z,-2.90
2022-12-12T00:57:19.889Z,-3.00
2022-12-12T01:01:57.608Z,-3.00
2022-12-12T01:26:57.700Z,-3.40
2022-12-12T01:29:53.499Z,-3.30
2022-12-12T01:33:22.067Z,-3.30
2022-12-12T01:36:57.903Z,-3.40
2022-12-12T02:14:28.529Z,-3.40
2022-12-12T02:17:21.818Z,-3.30
2022-12-12T02:21:29.850Z,-3.30
2022-12-12T02:25:28.178Z,-3.20
2022-12-12T02:32:49.463Z,-3.20
2022-12-12T02:35:54.461Z,-3.20
2022-12-12T02:56:32.111Z,-3.00
2022-12-12T03:12:48.685Z,-3.10
2022-12-12T03:16:15.132Z,-3.20
2022-12-12T03:30:38.227Z,-3.20
2022-12-12T03:38:00.728Z,-3.30
2022-12-12T03:41:07.823Z,-3.20
2022-12-12T03:47:35.928Z,-3.30
2022-12-12T03:50:58.353Z,-3.30
2022-12-12T03:53:58.058Z,-3.30
2022-12-12T04:00:12.202Z,-3.40
2022-12-12T04:02:52.016Z,-3.40
2022-12-12T04:10:52.445Z,-3.30
2022-12-12T04:14:21.440Z,-3.20
2022-12-12T04:21:05.212Z,-3.20
2022-12-12T04:30:46.102Z,-3.20
2022-12-12T04:48:37.044Z,-3.30
2022-12-12T04:51:19.895Z,-3.40
2022-12-12T05:07:43.815Z,-3.50
2022-12-12T05:10:31.147Z,-3.40
2022-12-12T05:20:24.200Z,-3.40
2022-12-12T05:23:01.843Z,-3.40
2022-12-12T05:25:36.814Z,-3.40
2022-12-12T05:28:26.572Z,-3.50
2022-12-12T05:31:07.868Z,-3.40
2022-12-12T05:33:48.557Z,-3.40
2022-12-12T05:36:18.020Z,-3.30
2022-12-12T05:38:47.823Z,-3.40
2022-12-12T05:41:17.038Z,-3.30
2022-12-12T05:43:56.399Z,-3.40
2022-12-12T05:46:42.071Z,-3.40
2022-12-12T05:49:44.575Z,-3.40
2022-12-12T05:52:23.272Z,-3.40
2022-12-12T05:55:18.800Z,-3.30
2022-12-12T05:57:56.799Z,-3.30
2022-12-12T06:00:41.556Z,-3.40
2022-12-12T06:03:17.792Z,-3.40
2022-12-12T06:06:06.276Z,-3.40
2022-12-12T06:08:34.580Z,-3.50
2022-12-12T06:11:07.673Z,-3.50
2022-12-12T06:13:40.329Z,-3.50
2022-12-12T06:16:11.511Z,-3.60
2022-12-12T06:18:39.871Z,-3.60
2022-12-12T06:21:12.010Z,-3.60
2022-12-12T06:23:43.645Z,-3.60
2022-12-12T06:26:17.725Z,-3.60
2022-12-12T06:28:49.861Z,-3.60
2022-12-12T06:31:37.144Z,-3.60
2022-12-12T06:34:20.099Z,-3.60
2022-12-12T06:36:52.253Z,-3.60
2022-12-12T06:39:29.370Z,-3.70
2022-12-12T06:42:11.985Z,-3.70
2022-12-12T06:45:41.475Z,-3.60
2022-12-12T06:48:24.258Z,-3.60
2022-12-12T06:54:04.098Z,-3.70
2022-12-12T06:56:46.261Z,-3.70
2022-12-12T06:59:41.575Z,-3.70
2022-12-12T07:02:37.752Z,-3.70
2022-12-12T07:05:10.796Z,-3.70
2022-12-12T07:07:40.818Z,-3.80
2022-12-12T07:10:13.482Z,-3.90
2022-12-12T07:12:47.724Z,-3.80
2022-12-12T07:15:20.925Z,-4.00
2022-12-12T07:18:00.628Z,-3.90
2022-12-12T07:20:30.234Z,-4.00
2022-12-12T07:22:58.649Z,-4.00
2022-12-12T07:25:33.039Z,-4.10
2022-12-12T07:28:01.323Z,-4.10
2022-12-12T07:30:35.695Z,-4.20
2022-12-12T07:33:03.743Z,-4.10
2022-12-12T07:35:33.260Z,-4.20
2022-12-12T07:38:01.326Z,-4.20
2022-12-12T07:40:29.487Z,-4.20
2022-12-12T07:43:00.965Z,-4.20
2022-12-12T07:46:11.190Z,-4.00
2022-12-12T07:49:16.557Z,-3.90
2022-12-12T07:51:49.861Z,-3.70
2022-12-12T07:54:21.337Z,-3.60
2022-12-12T07:57:03.399Z,-3.50
2022-12-12T07:59:31.503Z,-3.60
2022-12-12T08:01:59.591Z,-3.60
2022-12-12T08:04:27.890Z,-3.60
2022-12-12T08:07:03.971Z,-3.40
2022-12-12T08:09:33.626Z,-3.40
2022-12-12T08:12:01.763Z,-3.30
2022-12-12T08:14:32.519Z,-3.30
2022-12-12T08:17:00.986Z,-3.20
2022-12-12T08:19:29.299Z,-3.30
2022-12-12T08:21:58.871Z,-3.30
2022-12-12T08:24:28.543Z,-3.20
2022-12-12T08:26:57.001Z,-3.10
2022-12-12T08:29:25.205Z,-3.10
2022-12-12T08:31:54.227Z,-3.10
2022-12-12T08:34:22.813Z,-3.00
2022-12-12T08:36:52.371Z,-3.10
2022-12-12T08:39:22.339Z,-3.10
2022-12-12T08:41:50.967Z,-3.00
2022-12-12T08:44:25.927Z,-3.00
2022-12-12T08:46:54.484Z,-2.90
2022-12-12T08:49:23.107Z,-3.00
2022-12-12T08:51:51.651Z,-3.00
2022-12-12T08:54:28.763Z,-3.10
2022-12-12T08:56:56.822Z,-3.00
2022-12-12T08:59:29.999Z,-2.80
2022-12-12T09:01:58.212Z,-2.90
2022-12-12T09:04:32.239Z,-2.80
2022-12-12T09:07:04.899Z,-2.90
2022-12-12T09:09:37.756Z,-3.00
2022-12-12T09:12:06.426Z,-3.00
2022-12-12T09:14:36.140Z,-3.00
2022-12-12T09:17:04.272Z,-3.00
2022-12-12T09:19:32.666Z,-3.00
2022-12-12T09:22:00.728Z,-2.90
2022-12-12T09:24:29.024Z,-2.90
2022-12-12T09:26:58.680Z,-2.70
2022-12-12T09:29:27.185Z,-2.70
2022-12-12T09:31:55.452Z,-2.70
2022-12-12T09:34:35.006Z,-2.70
2022-12-12T09:39:55.904Z,-2.60
2022-12-12T09:42:28.795Z,-2.60
2022-12-12T09:45:01.545Z,-2.60
2022-12-12T09:47:38.138Z,-2.60
2022-12-12T09:50:29.052Z,-2.60
2022-12-12T09:53:00.407Z,-2.60
2022-12-12T09:55:41.832Z,-2.40
2022-12-12T09:58:23.161Z,-2.30
2022-12-12T10:00:59.008Z,-2.20
2022-12-12T10:03:50.674Z,-2.00
2022-12-12T10:06:37.557Z,-1.90
2022-12-12T10:09:23.089Z,-1.80
2022-12-12T10:11:52.969Z,-1.60
2022-12-12T10:14:29.024Z,-1.40
2022-12-12T10:17:00.035Z,-1.30
2022-12-12T10:19:31.415Z,-1.20
2022-12-12T10:22:05.541Z,-1.20
2022-12-12T10:24:42.818Z,-1.40
2022-12-12T10:27:12.543Z,-1.60
2022-12-12T10:29:45.360Z,-1.60
2022-12-12T10:32:27.756Z,-1.70
2022-12-12T10:35:12.965Z,-1.80
2022-12-12T10:37:57.672Z,-1.90
2022-12-12T10:40:39.370Z,-2.00
2022-12-12T10:43:17.291Z,-2.00
2022-12-12T10:46:00.233Z,-2.00
2022-12-12T10:48:29.891Z,-2.00
2022-12-12T10:51:03.247Z,-1.80
2022-12-12T10:53:33.030Z,-1.80
2022-12-12T10:56:06.506Z,-1.80
2022-12-12T10:58:39.122Z,-1.80
2022-12-12T11:01:13.827Z,-1.80
2022-12-12T11:03:46.828Z,-1.90
2022-12-12T11:06:19.607Z,-1.90
2022-12-12T11:08:56.456Z,-2.10
2022-12-12T11:11:25.767Z,-2.00
2022-12-12T11:13:55.730Z,-2.00
2022-12-12T11:16:27.451Z,-1.90
2022-12-12T11:19:01.986Z,-1.80
2022-12-12T11:21:32.543Z,-1.80
2022-12-12T11:24:01.676Z,-1.80
2022-12-12T11:26:30.369Z,-1.80
2022-12-12T11:29:02.160Z,-1.80
2022-12-12T11:31:35.572Z,-1.80
2022-12-12T11:34:07.336Z,-1.70
2022-12-12T11:36:38.352Z,-1.70
2022-12-12T11:39:19.859Z,-1.80
2022-12-12T11:42:02.218Z,-1.60
2022-12-12T11:44:35.529Z,-1.60
2022-12-12T11:47:23.149Z,-1.50
2022-12-12T11:49:53.798Z,-1.50
2022-12-12T11:52:24.860Z,-1.50
2022-12-12T11:54:54.160Z,-1.30
2022-12-12T11:57:36.655Z,-1.30
2022-12-12T12:00:14.730Z,-1.30
2022-12-12T12:03:22.050Z,-1.40
2022-12-12T12:06:20.812Z,-1.10
2022-12-12T12:09:09.431Z,-0.80
2022-12-12T12:11:48.274Z,-0.90
2022-12-12T12:14:34.282Z,-0.90
2022-12-12T12:17:10.757Z,-0.80
2022-12-12T12:19:59.173Z,-0.80
2022-12-12T12:22:41.213Z,-0.70
2022-12-12T12:25:33.073Z,-0.50
2022-12-12T12:28:31.002Z,0.00
2022-12-12T12:31:05.641Z,0.30
2022-12-12T12:33:47.106Z,0.60
2022-12-12T12:36:22.647Z,0.50
2022-12-12T12:39:12.277Z,0.30
2022-12-12T12:42:04.700Z,0.20
2022-12-12T12:44:42.394Z,0.00
2022-12-12T12:47:22.461Z,-0.10
2022-12-12T12:49:55.382Z,-0.30
2022-12-12T12:52:31.375Z,-0.60
2022-12-12T12:55:01.163Z,-0.70
2022-12-12T12:57:34.326Z,-0.80
2022-12-12T13:00:07.336Z,-1.00
2022-12-12T13:02:44.485Z,-1.10
2022-12-12T13:05:17.945Z,-1.10
2022-12-12T13:07:53.760Z,-1.10
2022-12-12T13:10:24.752Z,-0.70
2022-12-12T13:12:57.455Z,0.00
2022-12-12T13:15:29.341Z,0.50
2022-12-12T13:18:03.851Z,0.40
2022-12-12T13:20:36.331Z,0.40
2022-12-12T13:23:25.185Z,0.90
2022-12-12T13:25:59.166Z,0.90
2022-12-12T13:28:30.605Z,0.50
2022-12-12T13:31:26.343Z,-0.10
2022-12-12T13:33:57.146Z,-0.50
2022-12-12T13:36:30.218Z,-0.90
2022-12-12T13:39:02.013Z,-1.20
2022-12-12T13:41:58.227Z,-1.40
2022-12-12T13:44:39.924Z,-1.60
2022-12-12T13:47:29.305Z,-1.70
2022-12-12T13:49:59.512Z,-1.90
2022-12-12T13:52:41.086Z,-1.90
2022-12-12T13:55:23.682Z,-2.00
2022-12-12T13:58:18.554Z,-2.20
2022-12-12T14:00:46.982Z,-2.20
2022-12-12T14:03:31.391Z,-2.30
2022-12-12T14:06:12.728Z,-2.40
2022-12-12T14:08:49.572Z,-2.40
2022-12-12T14:11:31.486Z,-2.40
2022-12-12T14:14:09.011Z,-2.40
2022-12-12T14:16:39.405Z,-2.40
2022-12-12T14:19:21.700Z,-2.50
2022-12-12T14:21:53.050Z,-2.50
2022-12-12T14:24:48.463Z,-2.50
2022-12-12T14:27:18.178Z,-2.50
2022-12-12T14:29:48.219Z,-2.60
2022-12-12T14:32:40.536Z,-2.70
2022-12-12T14:35:32.135Z,-2.70
2022-12-12T14:38:13.773Z,-2.70
2022-12-12T14:40:47.026Z,-2.70
2022-12-12T14:43:23.051Z,-2.80
2022-12-12T14:46:02.377Z,-2.80
2022-12-12T14:48:31.654Z,-2.80
2022-12-12T14:51:10.847Z,-2.80
2022-12-12T14:53:47.624Z,-2.80
2022-12-12T14:56:47.645Z,-2.90
2022-12-12T14:59:39.251Z,-2.90
2022-12-12T15:02:18.086Z,-2.90
2022-12-12T15:04:48.467Z,-3.00
2022-12-12T15:07:27.313Z,-3.00
2022-12-12T15:09:55.922Z,-3.10
2022-12-12T15:12:26.501Z,-3.10
2022-12-12T15:15:24.816Z,-3.10
2022-12-12T15:17:53.571Z,-3.00
2022-12-12T15:20:24.341Z,-3.10
2022-12-12T15:22:55.243Z,-3.10
2022-12-12T15:25:26.012Z,-3.20
2022-12-12T15:27:56.744Z,-3.10
2022-12-12T15:30:33.204Z,-3.20
2022-12-12T15:33:02.916Z,-3.30
2022-12-12T15:35:31.098Z,-3.30
2022-12-12T15:38:01.232Z,-3.20
2022-12-12T15:40:31.107Z,-3.30
2022-12-12T15:43:01.997Z,-3.30
2022-12-12T15:45:37.121Z,-3.40
2022-12-12T15:48:07.125Z,-3.30
2022-12-12T15:50:52.455Z,-3.40
2022-12-12T15:53:25.253Z,-3.40
2022-12-12T15:56:02.719Z,-3.50
2022-12-12T15:58:33.485Z,-3.60
2022-12-12T16:01:20.825Z,-3.60
2022-12-12T16:03:58.227Z,-3.60
2022-12-12T16:06:29.197Z,-3.70
2022-12-12T16:09:02.720Z,-3.70
2022-12-12T16:11:41.183Z,-3.80
2022-12-12T16:14:39.597Z,-3.80
2022-12-12T16:17:14.328Z,-3.90
2022-12-12T16:19:45.756Z,-4.00
2022-12-12T16:22:32.684Z,-4.00
2022-12-12T16:25:14.769Z,-4.00
2022-12-12T16:27:43.369Z,-4.00
2022-12-12T16:30:15.202Z,-4.10
2022-12-12T16:32:45.216Z,-4.00
2022-12-12T16:35:17.064Z,-4.10
2022-12-12T16:37:45.542Z,-4.20
2022-12-12T16:40:15.728Z,-4.20
2022-12-12T16:42:52.811Z,-4.20
2022-12-12T16:45:21.112Z,-4.20
2022-12-12T16:47:50.646Z,-4.20
2022-12-12T16:50:24.577Z,-4.20
2022-12-12T16:52:52.817Z,-4.40
2022-12-12T16:55:24.872Z,-4.30
2022-12-12T16:57:53.063Z,-4.40
2022-12-12T17:00:21.445Z,-4.50
2022-12-12T17:02:52.784Z,-4.50
2022-12-12T17:05:23.882Z,-4.50
2022-12-12T17:07:52.820Z,-4.50
2022-12-12T17:10:22.346Z,-4.50
2022-12-12T17:12:50.807Z,-4.50
2022-12-12T17:15:22.610Z,-4.60
2022-12-12T17:17:52.518Z,-4.70
2022-12-12T17:20:37.768Z,-4.70
2022-12-12T17:26:03.642Z,-4.60
2022-12-12T17:28:33.916Z,-4.70
2022-12-12T17:31:02.847Z,-4.70
2022-12-12T17:33:32.309Z,-4.70
2022-12-12T17:36:02.418Z,-4.70
2022-12-12T17:38:32.886Z,-4.80
2022-12-12T17:41:10.388Z,-4.90
2022-12-12T17:43:38.939Z,-4.80
2022-12-12T17:46:19.496Z,-4.80
2022-12-12T17:48:58.870Z,-4.90
2022-12-12T17:51:27.409Z,-5.00
2022-12-12T17:53:57.726Z,-5.00
2022-12-12T17:56:27.245Z,-5.00
2022-12-12T17:58:55.437Z,-5.10
2022-12-12T18:01:26.004Z,-5.10
2022-12-12T18:04:04.514Z,-5.10
2022-12-12T18:06:35.013Z,-5.20
2022-12-12T18:09:06.306Z,-5.20
2022-12-12T18:11:36.176Z,-5.20
2022-12-12T18:14:08.189Z,-5.20
2022-12-12T18:16:37.552Z,-5.20
2022-12-12T18:19:07.478Z,-5.10
2022-12-12T18:22:00.254Z,-5.10
2022-12-12T18:24:38.502Z,-5.10
2022-12-12T18:27:06.887Z,-5.20
2022-12-12T18:29:35.142Z,-5.30
2022-12-12T18:32:04.799Z,-5.30
2022-12-12T18:34:34.586Z,-5.40
2022-12-12T18:37:02.726Z,-5.50
2022-12-12T18:39:31.127Z,-5.50
2022-12-12T18:41:59.215Z,-5.40
2022-12-12T18:44:27.397Z,-5.40
2022-12-12T18:46:55.835Z,-5.50
2022-12-12T18:49:24.134Z,-5.50
2022-12-12T18:51:53.730Z,-5.50
2022-12-12T18:54:29.687Z,-5.50
2022-12-12T18:57:00.457Z,-5.50
2022-12-12T18:59:28.692Z,-5.50
2022-12-12T19:01:57.124Z,-5.60
2022-12-12T19:04:25.545Z,-5.60
2022-12-12T19:06:55.256Z,-5.50
2022-12-12T19:09:35.136Z,-5.50
2022-12-12T19:12:03.344Z,-5.60
2022-12-12T19:17:26.465Z,-5.60
2022-12-12T19:19:55.161Z,-5.60
2022-12-12T19:25:14.958Z,-5.80
2022-12-12T19:27:43.236Z,-5.90
2022-12-12T19:30:14.043Z,-5.90
2022-12-12T19:32:42.997Z,-6.00
2022-12-12T19:35:11.519Z,-6.00
2022-12-12T19:37:41.220Z,-6.10
2022-12-12T19:40:18.897Z,-6.10
2022-12-12T19:42:47.088Z,-6.10
2022-12-12T19:45:15.674Z,-6.00
2022-12-12T19:47:43.922Z,-6.00
2022-12-12T19:50:12.588Z,-6.00
2022-12-12T19:52:42.714Z,-6.00
2022-12-12T19:55:11.720Z,-6.10
2022-12-12T19:57:39.917Z,-6.20
2022-12-12T20:00:11.824Z,-6.20
2022-12-12T20:02:41.347Z,-6.20
2022-12-12T20:05:10.251Z,-6.30
2022-12-12T20:07:38.799Z,-6.30
2022-12-12T20:10:10.917Z,-6.20
2022-12-12T20:12:46.169Z,-6.30
2022-12-12T20:15:20.332Z,-6.40
2022-12-12T20:17:48.798Z,-6.20
2022-12-12T20:20:17.071Z,-6.20
2022-12-12T20:22:45.222Z,-6.20
2022-12-12T20:25:17.344Z,-6.30
2022-12-12T20:27:45.526Z,-6.30
2022-12-12T20:30:14.217Z,-6.40
2022-12-12T20:32:42.632Z,-6.40
2022-12-12T20:35:12.158Z,-6.50
2022-12-12T20:37:40.233Z,-6.50
2022-12-12T20:40:09.940Z,-6.50
2022-12-12T20:42:39.857Z,-6.50
2022-12-12T20:45:08.808Z,-6.60
2022-12-12T20:47:37.531Z,-6.60
2022-12-12T20:50:06.404Z,-6.50
2022-12-12T20:52:34.990Z,-6.50
2022-12-12T20:55:03.613Z,-6.60
2022-12-12T20:57:32.082Z,-6.50
2022-12-12T21:00:01.954Z,-6.60
2022-12-12T21:02:30.645Z,-6.60
2022-12-12T21:04:58.729Z,-6.70
2022-12-12T21:07:33.431Z,-6.70
2022-12-12T21:10:03.614Z,-6.70
2022-12-12T21:12:34.506Z,-6.80
2022-12-12T21:15:04.533Z,-6.80
2022-12-12T21:17:34.891Z,-6.60
2022-12-12T21:20:06.673Z,-6.60
2022-12-12T21:22:35.443Z,-6.60
2022-12-12T21:25:16.939Z,-6.60
2022-12-12T21:27:45.421Z,-6.70
2022-12-12T21:30:15.547Z,-6.60
2022-12-12T21:32:43.861Z,-6.70
2022-12-12T21:35:12.710Z,-6.80
2022-12-12T21:37:41.314Z,-6.80
2022-12-12T21:40:12.935Z,-6.80
2022-12-12T21:42:43.045Z,-6.90
2022-12-12T21:45:27.857Z,-6.90
2022-12-12T21:47:56.468Z,-6.90
2022-12-12T21:50:30.734Z,-6.90
2022-12-12T21:53:18.499Z,-6.80
2022-12-12T21:55:51.439Z,-6.80
2022-12-12T22:01:13.361Z,-6.90
2022-12-12T22:03:50.114Z,-6.90
2022-12-12T22:06:23.478Z,-7.10
2022-12-12T22:08:56.195Z,-7.10
2022-12-12T22:11:41.016Z,-7.20
2022-12-12T22:14:13.347Z,-7.20
2022-12-12T22:16:53.957Z,-7.20
2022-12-12T22:19:38.420Z,-7.20
2022-12-12T22:22:07.277Z,-7.30
2022-12-12T22:24:40.769Z,-7.30
2022-12-12T22:27:14.353Z,-7.30
2022-12-12T22:29:48.865Z,-7.40
2022-12-12T22:32:19.425Z,-7.40
2022-12-12T22:34:48.618Z,-7.40
2022-12-12T22:37:19.009Z,-7.50
2022-12-12T22:39:51.497Z,-7.50
2022-12-12T22:42:26.641Z,-7.40
2022-12-12T22:45:03.857Z,-7.60
2022-12-12T22:47:41.428Z,-7.50
2022-12-12T22:50:26.361Z,-7.60
2022-12-12T22:53:06.200Z,-7.60
2022-12-12T22:55:43.501Z,-7.70
2022-12-12T22:58:18.144Z,-7.60
2022-12-12T23:00:54.414Z,-7.70
2022-12-12T23:03:36.618Z,-7.80
2022-12-12T23:06:08.735Z,-7.80
2022-12-12T23:08:37.323Z,-7.80
2022-12-12T23:11:15.655Z,-7.80
2022-12-12T23:13:48.345Z,-7.90
2022-12-12T23:16:42.481Z,-7.90
2022-12-12T23:19:22.831Z,-7.90
2022-12-12T23:21:59.305Z,-7.90
2022-12-12T23:24:29.540Z,-7.90
2022-12-12T23:27:07.340Z,-8.00
2022-12-12T23:30:14.364Z,-8.00
2022-12-12T23:32:48.002Z,-8.10
2022-12-12T23:35:42.801Z,-8.00
2022-12-12T23:38:13.819Z,-8.10
2022-12-12T23:40:49.942Z,-8.10
2022-12-12T23:43:33.255Z,-8.00
2022-12-12T23:46:07.090Z,-8.00
2022-12-12T23:48:46.939Z,-7.90
2022-12-12T23:51:26.852Z,-7.70
2022-12-12T23:53:57.767Z,-7.70
2022-12-12T23:56:33.049Z,-7.70
2022-12-12T23:59:04.158Z,-7.80
